Terminal Aerodrome Forecast
Issued by NWS

Home | Current Version | Previous Version | Text Only | Print | Product List | Glossary On
Versions: 1 2 3 4 5 6 7 8 9 10 11 12 13
661
FTAK31 PAJN 062320
TAFASI
TAF
PASI 062320Z 0700/0724 11007KT P6SM VCSH SCT070 BKN100
     FM070300 10006KT P6SM SCT070 SCT120
     FM070900 11008KT P6SM VCSH BKN050 OVC080 WS020/11035KT
     FM071200 10015G28KT P6SM -RA BKN050 OVC070 WS020/10045KT
     FM071800 12015KT P6SM -RA BKN050 OVC070=

USA.gov is the U.S. government's official web portal to all federal, state and local government web resources and services.